Time;durP1;ratioP1;P1;durP2;ratioP2;P2;SDS_P1;SDS_P2;PMS_P1;PMS_P2;Temp;Humidity;BMP_temperature;BMP_pressure;BME280_temperature;BME280_humidity;BME280_pressure;Samples;Min_cycle;Max_cycle;Signal;HPM_P1;HPM_P2
2022/10/07 00:00:22;;;;;;;27.75;26.55;;;;;;;8.89;100.00;102518.78;5063418;28;20480;-76
2022/10/07 00:02:47;;;;;;;29.73;28.63;;;;;;;8.89;100.00;102524.03;5058949;28;20040;-76
2022/10/07 00:05:12;;;;;;;30.73;29.20;;;;;;;8.89;100.00;102516.16;5062690;28;20499;-76
2022/10/07 00:07:38;;;;;;;26.65;25.67;;;;;;;8.77;100.00;102498.50;5060048;28;20052;-76
2022/10/07 00:10:04;;;;;;;29.30;28.30;;;;;;;8.87;100.00;102518.03;5059669;28;20039;-76
2022/10/07 00:12:29;;;;;;;30.33;29.20;;;;;;;8.83;100.00;102514.75;5067191;28;20043;-76
2022/10/07 00:14:54;;;;;;;27.02;26.02;;;;;;;8.85;100.00;102518.13;5063535;28;20503;-76
2022/10/07 00:17:20;;;;;;;29.65;28.60;;;;;;;8.81;100.00;102506.09;5064772;28;20138;-76
2022/10/07 00:19:46;;;;;;;25.85;24.88;;;;;;;8.83;100.00;102513.91;5064285;28;20039;-76
2022/10/07 00:22:11;;;;;;;29.38;27.80;;;;;;;8.81;100.00;102508.72;5064681;28;20035;-76
2022/10/07 00:24:37;;;;;;;32.17;30.35;;;;;;;8.83;100.00;102503.38;5061043;28;20065;-76
2022/10/07 00:27:02;;;;;;;31.73;29.65;;;;;;;8.81;100.00;102502.63;5060993;28;20028;-76
2022/10/07 00:29:28;;;;;;;28.77;27.67;;;;;;;8.79;100.00;102497.44;5065221;28;20033;-76
2022/10/07 00:31:53;;;;;;;28.08;27.05;;;;;;;8.81;100.00;102497.34;5065570;28;20101;-76
2022/10/07 00:34:19;;;;;;;28.60;27.33;;;;;;;8.79;100.00;102499.25;5061293;28;20032;-76
2022/10/07 00:36:44;;;;;;;28.85;27.45;;;;;;;8.77;100.00;102493.22;5061013;28;20096;-76
2022/10/07 00:39:13;;;;;;;32.05;30.38;;;;;;;8.75;100.00;102490.69;5062927;28;20024;-76
2022/10/07 00:41:43;;;;;;;32.60;30.77;;;;;;;8.76;100.00;102486.28;5064305;28;20033;-76
2022/10/07 00:44:31;;;;;;;27.52;26.50;;;;;;;8.74;100.00;102493.44;5061246;28;20027;-76
2022/10/07 00:47:03;;;;;;;26.98;25.88;;;;;;;8.69;100.00;102483.19;5063617;28;20025;-76
2022/10/07 00:49:36;;;;;;;29.55;28.48;;;;;;;8.75;100.00;102479.31;5058258;28;20799;-76
2022/10/07 00:52:01;;;;;;;27.55;26.45;;;;;;;8.75;100.00;102479.31;5065735;28;20036;-76
2022/10/07 00:54:27;;;;;;;28.52;26.88;;;;;;;8.65;100.00;102458.00;5064062;28;20071;-76
2022/10/07 00:56:52;;;;;;;29.42;27.83;;;;;;;8.73;100.00;102473.31;5062312;28;20486;-76
2022/10/07 00:59:19;;;;;;;28.10;26.20;;;;;;;8.73;100.00;102465.41;5060904;28;20044;-76
2022/10/07 01:01:45;;;;;;;28.83;27.73;;;;;;;8.73;100.00;102470.66;5061080;28;20029;-75
2022/10/07 01:04:12;;;;;;;30.50;28.27;;;;;;;8.73;100.00;102471.53;5062500;28;20033;-75
2022/10/07 01:06:38;;;;;;;29.75;28.52;;;;;;;8.73;100.00;102466.28;5063444;28;20024;-75
2022/10/07 01:09:09;;;;;;;28.35;27.15;;;;;;;8.73;100.00;102465.41;5059366;28;20063;-75
2022/10/07 01:11:59;;;;;;;26.90;25.58;;;;;;;8.73;100.00;102454.88;5059267;28;20037;-76
2022/10/07 01:14:42;;;;;;;26.38;24.92;;;;;;;8.71;100.00;102459.38;5058096;28;20055;-75
2022/10/07 01:17:22;;;;;;;27.23;25.80;;;;;;;8.53;100.00;102420.16;5061407;28;20036;-74
2022/10/07 01:20:29;;;;;;;26.67;25.48;;;;;;;8.69;100.00;102453.38;5060207;28;20364;-74
2022/10/07 01:22:54;;;;;;;26.08;24.77;;;;;;;8.68;100.00;102436.75;5064381;28;20143;-74
2022/10/07 01:25:35;;;;;;;29.20;27.58;;;;;;;8.67;100.00;102439.47;5057834;28;20100;-74
2022/10/07 01:28:09;;;;;;;30.60;29.13;;;;;;;8.64;100.00;102433.47;5066251;28;20051;-74
2022/10/07 01:30:40;;;;;;;26.20;25.00;;;;;;;8.64;100.00;102425.59;5063256;28;20078;-74
2022/10/07 01:33:19;;;;;;;29.58;28.55;;;;;;;8.54;100.00;102411.31;5068669;28;20032;-74
2022/10/07 01:35:49;;;;;;;27.27;26.27;;;;;;;8.58;100.00;102414.59;5064445;28;20087;-74
2022/10/07 01:38:21;;;;;;;27.60;26.58;;;;;;;8.57;100.00;102419.00;5067648;28;20021;-74
2022/10/07 01:40:55;;;;;;;30.77;29.27;;;;;;;8.43;100.00;102395.38;5063708;28;20028;-74
2022/10/07 01:43:22;;;;;;;28.60;27.42;;;;;;;8.52;100.00;102407.09;5067015;28;20021;-74
2022/10/07 01:45:49;;;;;;;30.63;29.35;;;;;;;8.52;100.00;102404.47;5068823;28;20380;-74
2022/10/07 01:48:15;;;;;;;26.13;25.13;;;;;;;8.46;100.00;102394.34;5065805;28;20029;-74
2022/10/07 01:50:42;;;;;;;31.85;30.20;;;;;;;8.44;100.00;102391.78;5061170;28;20094;-74
2022/10/07 01:53:22;;;;;;;28.33;27.27;;;;;;;8.42;100.00;102388.41;5063609;28;20029;-75
2022/10/07 01:56:00;;;;;;;25.27;24.33;;;;;;;8.41;100.00;102387.56;5068354;28;20060;-74
2022/10/07 01:58:33;;;;;;;29.20;28.13;;;;;;;8.40;100.00;102375.34;5065176;28;20426;-74
2022/10/07 02:01:21;;;;;;;30.83;29.33;;;;;;;8.43;100.00;102385.69;5070807;28;20074;-74
2022/10/07 02:04:10;;;;;;;27.35;25.58;;;;;;;8.42;100.00;102362.09;5065305;28;20499;-74
2022/10/07 02:07:08;;;;;;;23.73;22.88;;;;;;;8.42;100.00;102362.09;5073012;28;20035;-74
2022/10/07 02:09:39;;;;;;;23.85;22.38;;;;;;;8.40;100.00;102354.31;5062565;28;20496;-74
2022/10/07 02:12:28;;;;;;;26.55;24.50;;;;;;;8.39;100.00;102351.75;5070592;28;20369;-74
2022/10/07 02:15:02;;;;;;;24.15;22.65;;;;;;;8.35;100.00;102345.00;5063765;28;20071;-74
2022/10/07 02:17:33;;;;;;;24.67;23.75;;;;;;;8.21;100.00;102324.88;5066915;28;20039;-74
2022/10/07 02:20:01;;;;;;;27.30;26.10;;;;;;;8.20;100.00;102326.63;5066632;28;20093;-74
2022/10/07 02:22:28;;;;;;;25.48;24.33;;;;;;;8.21;100.00;102327.50;5064918;28;20028;-76
2022/10/07 02:24:57;;;;;;;29.27;27.98;;;;;;;8.30;100.00;102341.84;5059762;28;20342;-73
2022/10/07 02:27:28;;;;;;;29.63;28.35;;;;;;;8.26;100.00;102346.44;5075279;28;20032;-73
2022/10/07 02:29:58;;;;;;;32.75;31.45;;;;;;;8.25;100.00;102344.75;5065918;28;20489;-74
2022/10/07 02:32:25;;;;;;;31.92;30.63;;;;;;;8.22;100.00;102339.69;5066094;28;20441;-76
2022/10/07 02:34:56;;;;;;;33.50;31.55;;;;;;;8.17;100.00;102320.72;5069880;28;20088;-75
2022/10/07 02:37:27;;;;;;;35.03;33.72;;;;;;;8.02;100.00;102312.03;5068960;28;20031;-74
2022/10/07 02:39:54;;;;;;;30.55;28.83;;;;;;;8.06;100.00;102317.91;5063465;28;20392;-74
2022/10/07 02:42:40;;;;;;;26.98;25.70;;;;;;;7.96;100.00;102304.53;5064311;28;20083;-74
2022/10/07 02:45:09;;;;;;;32.13;30.40;;;;;;;8.15;100.00;102320.00;5060638;28;20484;-74
2022/10/07 02:48:23;;;;;;;27.35;25.90;;;;;;;8.11;100.00;102316.69;5067313;28;20033;-76
2022/10/07 02:50:55;;;;;;;25.83;24.70;;;;;;;8.08;100.00;102311.66;5061671;28;20532;-75
2022/10/07 02:53:25;;;;;;;28.17;26.92;;;;;;;8.09;100.00;102307.22;5063426;28;20078;-74
2022/10/07 02:55:53;;;;;;;29.05;27.17;;;;;;;8.06;100.00;102316.16;5064589;28;20461;-74
2022/10/07 02:58:23;;;;;;;26.92;25.83;;;;;;;7.99;100.00;102304.31;5063514;28;20028;-74
2022/10/07 03:00:52;;;;;;;22.95;22.05;;;;;;;8.03;100.00;102316.34;5063351;28;20719;-73
2022/10/07 03:03:17;;;;;;;26.42;25.33;;;;;;;8.01;100.00;102305.94;5070339;28;20017;-73
2022/10/07 03:05:43;;;;;;;26.30;25.25;;;;;;;7.95;100.00;102282.66;5064802;28;20374;-73
2022/10/07 03:08:10;;;;;;;28.40;27.17;;;;;;;7.88;100.00;102277.88;5063233;28;20044;-74
2022/10/07 03:10:37;;;;;;;24.88;23.92;;;;;;;7.94;100.00;102275.69;5061241;28;20640;-74
2022/10/07 03:13:06;;;;;;;25.85;24.83;;;;;;;8.01;100.00;102281.41;5067808;28;20388;-74
2022/10/07 03:15:34;;;;;;;26.75;25.33;;;;;;;8.04;100.00;102279.44;5060448;28;20125;-74
2022/10/07 03:17:59;;;;;;;22.80;21.95;;;;;;;7.91;100.00;102248.78;5069049;28;20056;-74
2022/10/07 03:20:25;;;;;;;28.42;26.58;;;;;;;8.07;100.00;102282.81;5043287;28;20678;-77
2022/10/07 03:22:50;;;;;;;24.48;23.38;;;;;;;8.07;100.00;102281.03;5063732;28;20041;-75
2022/10/07 03:25:16;;;;;;;27.25;26.17;;;;;;;8.08;100.00;102273.97;5058532;28;20131;-74
2022/10/07 03:27:41;;;;;;;24.75;23.73;;;;;;;8.09;100.00;102268.63;5063673;28;20043;-74
2022/10/07 03:30:08;;;;;;;23.55;22.65;;;;;;;8.08;100.00;102269.56;5058559;28;20078;-74
2022/10/07 03:32:34;;;;;;;26.85;25.85;;;;;;;8.09;100.00;102266.00;5067188;28;20060;-74
2022/10/07 03:34:59;;;;;;;24.83;23.80;;;;;;;8.11;100.00;102263.28;5065337;28;20064;-74
2022/10/07 03:37:25;;;;;;;23.33;22.23;;;;;;;8.09;100.00;102271.25;5063103;28;20071;-74
2022/10/07 03:39:52;;;;;;;25.60;24.67;;;;;;;8.08;100.00;102263.44;5070176;28;20025;-74
2022/10/07 03:42:18;;;;;;;24.70;23.00;;;;;;;8.08;100.00;102266.06;5061184;28;20033;-74
2022/10/07 03:44:44;;;;;;;24.40;23.40;;;;;;;8.05;100.00;102267.13;5058767;28;20035;-74
2022/10/07 03:47:10;;;;;;;26.25;24.80;;;;;;;8.06;100.00;102257.44;5066240;28;20746;-76
2022/10/07 03:49:35;;;;;;;25.75;24.63;;;;;;;8.04;100.00;102258.41;5061960;28;20059;-74
2022/10/07 03:52:02;;;;;;;29.83;28.58;;;;;;;7.96;100.00;102246.69;5065226;28;20059;-73
2022/10/07 03:54:27;;;;;;;27.02;25.92;;;;;;;7.98;100.00;102250.91;5060585;28;20052;-73
2022/10/07 03:56:53;;;;;;;26.40;25.02;;;;;;;7.96;100.00;102246.69;5059736;28;20127;-73
2022/10/07 03:59:18;;;;;;;25.90;24.35;;;;;;;7.79;100.00;102219.69;5059879;28;20111;-74
2022/10/07 04:01:43;;;;;;;25.85;24.75;;;;;;;7.92;100.00;102237.31;5046852;28;20032;-74
2022/10/07 04:04:09;;;;;;;24.52;23.42;;;;;;;7.90;100.00;102247.91;5068385;28;20036;-74
2022/10/07 04:06:34;;;;;;;25.65;23.92;;;;;;;7.89;100.00;102240.97;5063448;28;20765;-76
2022/10/07 04:09:01;;;;;;;23.30;22.27;;;;;;;7.90;100.00;102233.94;5060909;28;20044;-75
2022/10/07 04:11:26;;;;;;;24.88;23.48;;;;;;;7.89;100.00;102238.34;5058410;28;20050;-75
2022/10/07 04:13:52;;;;;;;23.77;22.88;;;;;;;7.91;100.00;102219.88;5058926;28;20103;-74
2022/10/07 04:16:18;;;;;;;24.45;23.58;;;;;;;7.86;100.00;102216.66;5057748;28;20531;-74
2022/10/07 04:18:44;;;;;;;28.52;26.83;;;;;;;7.85;100.00;102220.25;5065444;28;20032;-75
2022/10/07 04:21:10;;;;;;;26.73;24.77;;;;;;;7.86;100.00;102221.94;5063392;28;20078;-74
2022/10/07 04:23:36;;;;;;;24.92;23.95;;;;;;;7.85;100.00;102220.25;5058182;28;20519;-74
2022/10/07 04:26:08;;;;;;;25.48;24.48;;;;;;;7.82;100.00;102232.66;5058473;28;20032;-74
2022/10/07 04:28:33;;;;;;;27.50;26.40;;;;;;;7.80;100.00;102223.19;5073386;28;20508;-75
2022/10/07 04:31:03;;;;;;;25.13;24.13;;;;;;;7.78;100.00;102218.00;5059164;28;20144;-74
2022/10/07 04:33:28;;;;;;;22.25;21.25;;;;;;;7.71;100.00;102218.50;5058539;28;20044;-74
2022/10/07 04:35:54;;;;;;;24.85;23.55;;;;;;;7.70;100.00;102217.66;5039841;28;20722;-74
2022/10/07 04:38:20;;;;;;;24.15;22.88;;;;;;;7.58;100.00;102206.16;5060210;28;20116;-74
2022/10/07 04:40:47;;;;;;;25.70;24.45;;;;;;;7.53;100.00;102195.06;5052908;28;20408;-74
2022/10/07 04:43:19;;;;;;;21.88;21.00;;;;;;;7.66;100.00;102212.69;5064505;28;20074;-74
2022/10/07 04:45:53;;;;;;;20.95;20.10;;;;;;;7.66;100.00;102216.16;5060042;28;20061;-74
2022/10/07 04:48:21;;;;;;;24.42;23.10;;;;;;;7.63;100.00;102221.63;5067052;28;20028;-74
2022/10/07 04:50:46;;;;;;;21.55;20.25;;;;;;;7.63;100.00;102211.09;5059289;28;20115;-74
2022/10/07 04:53:14;;;;;;;23.17;21.92;;;;;;;7.63;100.00;102201.44;5057337;28;20115;-74
2022/10/07 04:55:42;;;;;;;21.88;21.05;;;;;;;7.59;100.00;102214.88;5058304;28;20025;-74
2022/10/07 04:58:08;;;;;;;23.00;22.02;;;;;;;7.58;100.00;102205.31;5054129;28;20029;-74
2022/10/07 05:00:34;;;;;;;25.15;23.58;;;;;;;7.44;100.00;102179.06;5061870;28;20020;-74
2022/10/07 05:03:00;;;;;;;24.02;22.92;;;;;;;7.58;100.00;102198.25;5061676;28;20017;-74
2022/10/07 05:05:26;;;;;;;24.58;23.10;;;;;;;7.53;100.00;102199.47;5062357;28;20464;-75
2022/10/07 05:07:53;;;;;;;23.75;22.63;;;;;;;7.43;100.00;102183.47;5060802;28;20056;-75
2022/10/07 05:10:19;;;;;;;20.17;19.35;;;;;;;7.54;100.00;102201.19;5056129;28;20763;-75
2022/10/07 05:12:45;;;;;;;22.00;20.90;;;;;;;7.53;100.00;102202.13;5057902;28;20136;-75
2022/10/07 05:15:11;;;;;;;21.30;20.40;;;;;;;7.53;100.00;102196.84;5057174;28;20220;-75
2022/10/07 05:17:39;;;;;;;21.98;20.65;;;;;;;7.39;100.00;102180.19;5069089;28;20028;-74
2022/10/07 05:20:05;;;;;;;22.92;22.00;;;;;;;7.47;100.00;102189.34;5066746;28;20439;-73
2022/10/07 05:22:30;;;;;;;24.27;23.38;;;;;;;7.38;100.00;102165.38;5052734;28;20154;-74
2022/10/07 05:24:57;;;;;;;24.67;23.52;;;;;;;7.44;100.00;102179.06;5040670;28;20050;-73
2022/10/07 05:27:22;;;;;;;24.25;23.20;;;;;;;7.54;100.00;102195.94;5058374;28;20043;-74
2022/10/07 05:29:47;;;;;;;34.33;33.05;;;;;;;7.56;100.00;102196.69;5053622;28;20037;-73
2022/10/07 05:32:13;;;;;;;26.25;24.83;;;;;;;7.60;100.00;102188.50;5064612;28;20032;-73
2022/10/07 05:34:39;;;;;;;22.33;21.25;;;;;;;7.61;100.00;102190.19;5062871;28;20460;-74
2022/10/07 05:37:04;;;;;;;25.00;23.05;;;;;;;7.63;100.00;102192.72;5058947;28;20048;-73
2022/10/07 05:39:29;;;;;;;23.17;22.13;;;;;;;7.68;100.00;102193.25;5060269;28;20058;-73
2022/10/07 05:41:55;;;;;;;23.60;22.60;;;;;;;7.67;100.00;102186.31;5068725;28;20033;-73
2022/10/07 05:44:20;;;;;;;43.13;41.40;;;;;;;7.69;100.00;102183.59;5060706;28;20073;-73
2022/10/07 05:46:45;;;;;;;23.10;21.85;;;;;;;7.69;100.00;102184.44;5070304;28;20070;-72
2022/10/07 05:49:11;;;;;;;25.08;23.02;;;;;;;7.71;100.00;102181.69;5062177;28;20239;-72
2022/10/07 05:51:36;;;;;;;23.52;22.50;;;;;;;7.73;100.00;102178.06;5061691;28;20040;-73
2022/10/07 05:54:02;;;;;;;36.35;34.92;;;;;;;7.77;100.00;102178.69;5057053;28;20029;-73
2022/10/07 05:56:27;;;;;;;27.88;26.77;;;;;;;7.80;100.00;102174.09;5058834;28;20036;-73
2022/10/07 05:58:56;;;;;;;24.10;23.20;;;;;;;7.85;100.00;102167.69;5065390;28;20518;-73
2022/10/07 06:01:23;;;;;;;22.75;21.77;;;;;;;7.88;100.00;102159.59;5073102;28;20058;-73
2022/10/07 06:03:58;;;;;;;23.98;22.92;;;;;;;7.91;100.00;102172.53;5060805;28;20037;-73
2022/10/07 06:06:24;;;;;;;23.90;22.77;;;;;;;7.93;100.00;102171.50;5055846;28;20107;-73
2022/10/07 06:08:51;;;;;;;26.85;25.45;;;;;;;7.97;100.00;102174.75;5065376;28;20056;-73
2022/10/07 06:14:03;;;;;;;27.05;24.25;;;;;;;7.93;100.00;102149.63;5058015;28;20116;-73
2022/10/07 06:16:28;;;;;;;27.42;26.13;;;;;;;8.12;100.00;102170.28;5074922;28;20033;-73
2022/10/07 06:18:54;;;;;;;26.65;25.60;;;;;;;8.18;100.00;102170.72;5057168;28;20443;-73
2022/10/07 06:21:26;;;;;;;31.35;29.85;;;;;;;8.23;100.00;102170.41;5050225;28;20032;-73
2022/10/07 06:23:53;;;;;;;31.02;29.45;;;;;;;8.27;100.00;102177.16;5063565;28;20031;-73
2022/10/07 06:26:20;;;;;;;28.92;27.52;;;;;;;8.35;100.00;102176.66;5068918;28;20028;-73
2022/10/07 06:28:46;;;;;;;30.23;29.00;;;;;;;8.41;100.00;102176.28;5068020;28;20400;-74
2022/10/07 06:31:21;;;;;;;31.25;29.85;;;;;;;8.38;100.00;102164.16;5056269;28;20025;-73
2022/10/07 06:33:47;;;;;;;34.03;32.20;;;;;;;8.56;100.00;102187.56;5051617;28;20036;-73
2022/10/07 06:36:13;;;;;;;35.28;33.67;;;;;;;8.63;100.00;102179.13;5065320;28;20358;-73
2022/10/07 06:38:49;;;;;;;41.53;39.58;;;;;;;8.62;100.00;102166.94;5066121;28;20025;-73
2022/10/07 06:41:15;;;;;;;48.15;45.33;;;;;;;8.77;100.00;102177.34;5063206;28;20021;-73
2022/10/07 06:43:40;;;;;;;49.08;46.78;;;;;;;8.80;100.00;102167.44;5052796;28;20032;-73
2022/10/07 06:46:08;;;;;;;51.25;49.05;;;;;;;8.96;100.00;102183.00;5042728;28;20028;-73
2022/10/07 06:48:34;;;;;;;60.97;58.25;;;;;;;9.04;100.00;102177.22;5062616;28;20496;-73
2022/10/07 06:51:03;;;;;;;60.00;56.90;;;;;;;9.10;100.00;102181.19;5061080;28;20038;-73
2022/10/07 06:53:29;;;;;;;67.32;64.60;;;;;;;9.16;100.00;102186.03;5060579;28;20102;-73
2022/10/07 06:55:56;;;;;;;69.30;66.35;;;;;;;9.23;100.00;102182.03;5056707;28;20033;-73
2022/10/07 06:58:26;;;;;;;71.88;68.80;;;;;;;9.33;100.00;102182.22;5065910;28;20033;-73
2022/10/07 07:00:53;;;;;;;83.47;79.35;;;;;;;9.39;100.00;102182.63;5057754;28;20097;-73
2022/10/07 07:03:19;;;;;;;82.05;78.18;;;;;;;9.46;100.00;102175.97;5058009;28;20557;-72
2022/10/07 07:05:45;;;;;;;82.35;78.82;;;;;;;9.49;100.00;102172.25;5054813;28;20033;-73
2022/10/07 07:08:12;;;;;;;81.35;77.65;;;;;;;9.59;100.00;102175.09;5052262;28;20041;-73
2022/10/07 07:10:42;;;;;;;80.40;77.22;;;;;;;9.62;100.00;102170.41;5060146;28;20036;-73
2022/10/07 07:13:09;;;;;;;79.40;76.00;;;;;;;9.79;100.00;102179.75;5057138;28;20075;-73
2022/10/07 07:15:35;;;;;;;80.63;77.47;;;;;;;9.91;100.00;102169.25;5057648;28;20428;-73
2022/10/07 07:18:02;;;;;;;81.47;77.50;;;;;;;9.88;100.00;102165.88;5057467;28;20043;-73
2022/10/07 07:20:34;;;;;;;82.38;78.75;;;;;;;9.97;100.00;102163.50;5055235;28;20104;-73
2022/10/07 07:23:09;;;;;;;72.82;70.15;;;;;;;10.07;100.00;102160.06;5055970;28;20024;-73
2022/10/07 07:25:37;;;;;;;79.93;76.25;;;;;;;10.01;100.00;102143.88;5058416;28;20028;-73
2022/10/07 07:28:03;;;;;;;82.60;79.43;;;;;;;10.13;100.00;102153.53;5057228;28;20017;-73
2022/10/07 07:30:29;;;;;;;81.78;78.10;;;;;;;10.28;100.00;102165.56;5050530;28;20049;-73
2022/10/07 07:32:56;;;;;;;79.30;76.45;;;;;;;10.39;100.00;102164.78;5054720;28;20039;-73
2022/10/07 07:35:23;;;;;;;82.18;79.13;;;;;;;10.44;100.00;102157.34;5058208;28;20473;-73
2022/10/07 07:37:49;;;;;;;76.50;73.47;;;;;;;10.60;100.00;102164.09;5057924;28;20538;-73
2022/10/07 07:40:15;;;;;;;73.20;70.13;;;;;;;10.54;100.00;102131.09;5055555;28;20041;-73
2022/10/07 07:42:40;;;;;;;69.82;66.88;;;;;;;10.80;100.00;102158.13;5044217;28;20129;-73
2022/10/07 07:45:06;;;;;;;61.67;59.28;;;;;;;11.00;100.00;102156.56;5053837;28;20021;-73
2022/10/07 07:47:34;;;;;;;58.45;55.97;;;;;;;11.22;100.00;102154.84;5057423;28;20047;-73
2022/10/07 07:50:00;;;;;;;76.80;73.57;;;;;;;11.79;100.00;102127.28;5057093;28;20094;-73
2022/10/07 07:52:26;;;;;;;68.88;65.10;;;;;;;12.72;100.00;102138.94;5055229;28;20021;-73
2022/10/07 07:54:56;;;;;;;30.35;28.77;;;;;;;13.45;97.80;102147.56;5057925;28;20032;-73
2022/10/07 07:57:22;;;;;;;9.40;8.65;;;;;;;13.50;94.48;102142.69;5052062;28;20029;-73
2022/10/07 07:59:47;;;;;;;8.25;7.65;;;;;;;13.91;91.98;102138.09;5055722;28;20044;-74
2022/10/07 08:02:12;;;;;;;6.40;5.90;;;;;;;14.36;90.95;102145.44;5060067;28;20032;-74
2022/10/07 08:04:38;;;;;;;9.00;4.43;;;;;;;14.56;88.17;102142.78;5054876;28;20070;-74
2022/10/07 08:07:03;;;;;;;10.10;3.88;;;;;;;14.95;86.31;102126.69;5055546;28;20020;-74
2022/10/07 08:09:28;;;;;;;6.78;3.08;;;;;;;15.30;84.26;102141.03;5054777;28;20540;-74
2022/10/07 08:11:56;;;;;;;5.10;2.33;;;;;;;15.49;84.04;102130.28;5058336;28;20047;-74
2022/10/07 08:14:22;;;;;;;7.68;2.97;;;;;;;16.07;81.83;102131.66;5061078;28;20029;-74
2022/10/07 08:16:48;;;;;;;9.40;2.50;;;;;;;15.90;81.43;102124.53;5057037;28;20098;-74
2022/10/07 08:19:14;;;;;;;5.35;2.13;;;;;;;16.81;78.07;102143.63;5053954;28;20052;-74
2022/10/07 08:21:39;;;;;;;5.18;2.00;;;;;;;16.86;77.06;102138.66;5060132;28;20589;-74
2022/10/07 08:24:08;;;;;;;8.80;2.45;;;;;;;17.22;76.36;102145.59;5065451;28;20051;-74
2022/10/07 08:26:36;;;;;;;5.93;2.45;;;;;;;16.23;78.99;102133.59;5055351;28;20012;-74
2022/10/07 08:29:01;;;;;;;10.15;3.08;;;;;;;15.25;81.21;102127.38;5056116;28;20115;-74
2022/10/07 08:31:28;;;;;;;5.93;3.13;;;;;;;14.50;86.51;102140.66;5034933;28;20544;-74
2022/10/07 08:33:56;;;;;;;5.35;4.70;;;;;;;13.66;89.51;102136.00;5054188;28;20065;-74
2022/10/07 08:36:23;;;;;;;5.60;5.18;;;;;;;13.58;91.45;102126.91;5059679;28;20024;-74
2022/10/07 08:38:49;;;;;;;6.05;5.55;;;;;;;13.68;92.55;102118.97;5054585;28;20033;-74
2022/10/07 08:41:14;;;;;;;12.20;9.40;;;;;;;13.53;93.00;102117.72;5057650;28;20024;-74
2022/10/07 08:43:45;;;;;;;12.32;11.50;;;;;;;13.52;93.36;102116.88;5053667;28;20016;-74
2022/10/07 08:46:27;;;;;;;12.68;11.93;;;;;;;13.56;94.40;102112.94;5055022;28;20506;-73
2022/10/07 08:48:58;;;;;;;19.65;18.45;;;;;;;13.48;94.60;102088.97;5057253;28;20028;-73
2022/10/07 08:51:27;;;;;;;;;;;;;;;13.62;94.39;102100.13;5066953;28;20111;-73
2022/10/07 08:53:59;;;;;;;20.27;17.92;;;;;;;14.27;92.73;102101.16;5056781;28;19947;-74
2022/10/07 08:56:25;;;;;;;14.57;12.70;;;;;;;15.16;88.75;102089.22;5055029;28;20056;-74
2022/10/07 08:59:05;;;;;;;12.48;11.38;;;;;;;16.56;84.19;102099.97;5054393;28;20028;-74
2022/10/07 09:02:12;;;;;;;3.72;3.42;;;;;;;17.25;78.24;102098.09;5055593;28;20025;-74
2022/10/07 09:04:53;;;;;;;5.50;2.83;;;;;;;18.11;77.59;102087.16;5054761;28;20029;-74
2022/10/07 09:07:36;;;;;;;4.13;2.50;;;;;;;18.40;74.37;102094.59;5056307;28;20029;-74
2022/10/07 09:10:20;;;;;;;9.63;2.10;;;;;;;18.59;73.69;102088.84;5053971;28;20476;-74
2022/10/07 09:13:03;;;;;;;9.68;2.60;;;;;;;18.26;74.43;102098.81;5064356;28;20032;-74
2022/10/07 09:15:47;;;;;;;5.78;2.30;;;;;;;18.82;72.83;102069.41;5061587;28;20059;-74
2022/10/07 09:18:18;;;;;;;4.90;1.98;;;;;;;19.63;69.23;102088.63;5059612;28;20028;-74
2022/10/07 09:20:52;;;;;;;7.00;1.90;;;;;;;19.10;71.24;102077.78;5055634;28;20452;-74
2022/10/07 09:23:19;;;;;;;10.60;2.75;;;;;;;19.56;69.91;102087.69;5057399;28;20017;-74
2022/10/07 09:25:44;;;;;;;10.18;2.33;;;;;;;18.90;72.73;102085.41;5053650;28;20478;-75
2022/10/07 09:28:16;;;;;;;3.88;2.28;;;;;;;19.41;71.39;102084.94;5062324;28;20036;-73
2022/10/07 09:30:42;;;;;;;5.88;1.75;;;;;;;20.70;67.71;102086.56;5064293;28;20019;-74
2022/10/07 09:33:14;;;;;;;5.97;2.00;;;;;;;20.86;67.08;102077.50;5055012;28;20480;-73
2022/10/07 09:35:40;;;;;;;8.95;2.00;;;;;;;20.64;66.90;102075.75;5053936;28;20100;-73
2022/10/07 09:38:08;;;;;;;5.30;1.48;;;;;;;19.69;68.37;102053.97;5053656;28;20120;-74
2022/10/07 09:43:33;;;;;;;6.40;2.03;;;;;;;20.57;67.23;102066.78;5054713;28;20107;-73
2022/10/07 09:46:00;;;;;;;6.22;2.30;;;;;;;21.23;65.13;102064.91;5064006;28;20101;-73
2022/10/07 09:48:33;;;;;;;4.88;1.63;;;;;;;20.81;66.19;102071.84;5054290;28;20025;-73
2022/10/07 09:51:15;;;;;;;6.88;1.85;;;;;;;20.54;67.19;102059.94;5056443;28;20357;-73
2022/10/07 09:54:18;;;;;;;3.70;1.90;;;;;;;21.17;64.26;102065.66;5060655;28;20017;-73
2022/10/07 09:56:45;;;;;;;6.95;2.10;;;;;;;20.22;66.87;102053.09;5011933;28;20052;-73
2022/10/07 09:59:22;;;;;;;9.82;2.20;;;;;;;20.71;65.85;102060.59;5029574;28;20068;-73
2022/10/07 10:01:50;;;;;;;7.18;1.73;;;;;;;21.25;65.25;102062.84;5029550;28;20033;-73
2022/10/07 10:04:18;;;;;;;5.10;1.38;;;;;;;21.18;64.99;102053.88;5029308;28;20053;-73
2022/10/07 10:06:51;;;;;;;5.35;1.83;;;;;;;21.04;64.86;102044.06;5029437;28;20568;-73
2022/10/07 10:09:21;;;;;;;3.13;1.85;;;;;;;21.22;64.43;102036.38;5029225;28;20091;-73
2022/10/07 10:12:12;;;;;;;9.93;2.42;;;;;;;21.10;63.63;102045.94;5028717;28;20104;-73
2022/10/07 10:14:46;;;;;;;5.40;2.00;;;;;;;21.26;64.41;102045.72;5028770;28;20041;-73
2022/10/07 10:17:27;;;;;;;11.93;2.53;;;;;;;19.88;66.92;102038.38;5029380;28;20112;-73
2022/10/07 10:19:53;;;;;;;7.05;1.90;;;;;;;20.64;67.60;102035.53;5022997;28;20041;-73
2022/10/07 10:22:30;;;;;;;10.52;2.55;;;;;;;20.66;67.43;102037.00;5029222;28;20048;-73
2022/10/07 10:27:49;;;;;;;4.25;2.17;;;;;;;20.63;66.58;102020.47;5005700;28;20057;-75
2022/10/07 10:30:20;;;;;;;5.25;1.88;;;;;;;20.25;68.54;102020.56;5029382;28;20477;-73
2022/10/07 10:33:20;;;;;;;11.15;2.33;;;;;;;21.49;65.68;102016.00;5044594;28;20037;-73
2022/10/07 10:36:04;;;;;;;8.65;2.15;;;;;;;20.90;66.16;102016.22;5060367;28;20044;-75
2022/10/07 10:39:01;;;;;;;7.43;2.35;;;;;;;21.36;65.37;102022.06;5057857;28;20047;-73
2022/10/07 10:41:45;;;;;;;11.98;2.38;;;;;;;21.12;67.51;102015.22;5063491;28;20052;-72
2022/10/07 10:44:31;;;;;;;8.20;2.55;;;;;;;21.41;66.12;102009.91;5058997;28;20037;-72
2022/10/07 10:47:05;;;;;;;3.67;2.08;;;;;;;19.93;70.02;102003.84;5067867;28;20790;-72
2022/10/07 10:49:37;;;;;;;9.27;2.72;;;;;;;21.80;65.90;102004.03;5058984;28;20028;-72
2022/10/07 10:52:05;;;;;;;11.23;2.97;;;;;;;21.07;66.58;101992.66;5062649;28;20046;-74
2022/10/07 10:54:50;;;;;;;5.45;2.17;;;;;;;21.00;67.16;101999.81;5058050;28;20020;-74
2022/10/07 10:57:40;;;;;;;10.25;2.97;;;;;;;21.07;66.67;101996.16;5060583;28;20678;-73
2022/10/07 11:00:13;;;;;;;5.68;1.83;;;;;;;19.33;69.23;101974.22;5059140;28;20020;-73
2022/10/07 11:02:46;;;;;;;6.40;2.92;;;;;;;19.01;73.82;101990.53;5060858;28;20121;-73
2022/10/07 11:05:24;;;;;;;10.00;2.88;;;;;;;18.87;74.33;101968.06;5059393;28;20111;-74
2022/10/07 11:07:53;;;;;;;6.38;3.70;;;;;;;18.53;75.91;101977.28;5059251;28;20048;-73
2022/10/07 11:10:23;;;;;;;5.93;3.72;;;;;;;17.60;77.98;101975.22;5063385;28;20027;-73
2022/10/07 11:12:55;;;;;;;6.23;4.93;;;;;;;17.37;80.00;101977.72;5062435;28;20067;-73
2022/10/07 11:15:38;;;;;;;7.68;6.90;;;;;;;16.95;80.97;101973.34;5059628;28;20286;-73
2022/10/07 11:18:10;;;;;;;10.20;9.48;;;;;;;16.56;83.55;101963.25;5059193;28;20024;-74
2022/10/07 11:20:41;;;;;;;13.57;12.57;;;;;;;16.47;83.30;101948.22;5064232;28;20120;-73
2022/10/07 11:24:03;;;;;;;16.00;15.20;;;;;;;16.65;82.41;101957.75;5065718;28;20021;-74
2022/10/07 11:27:13;;;;;;;18.42;17.42;;;;;;;17.87;81.10;101957.97;4998199;28;20041;-74
2022/10/07 11:29:48;;;;;;;12.55;11.82;;;;;;;17.92;78.12;101928.94;5001981;28;20030;-74
2022/10/07 11:32:27;;;;;;;13.35;12.60;;;;;;;18.69;77.70;101944.25;4990448;28;20555;-74
2022/10/07 11:35:07;;;;;;;8.25;7.47;;;;;;;19.17;72.66;101939.59;5004787;28;20033;-74